sensor_id;sensor_type;location;lat;lon;timestamp;temperature;humidity
5174;DHT22;2606;50.934;6.934;2022-12-13T00:00:22;-1.00;99.90
5174;DHT22;2606;50.934;6.934;2022-12-13T00:02:47;-1.10;99.90
5174;DHT22;2606;50.934;6.934;2022-12-13T00:05:13;-1.10;99.90
5174;DHT22;2606;50.934;6.934;2022-12-13T00:07:39;-1.10;99.90
5174;DHT22;2606;50.934;6.934;2022-12-13T00:10:05;-1.10;99.90
5174;DHT22;2606;50.934;6.934;2022-12-13T00:12:31;-1.10;99.90
5174;DHT22;2606;50.934;6.934;2022-12-13T00:14:57;-1.10;99.90
5174;DHT22;2606;50.934;6.934;2022-12-13T00:17:23;-1.10;99.90
5174;DHT22;2606;50.934;6.934;2022-12-13T00:19:49;-1.10;99.90
5174;DHT22;2606;50.934;6.934;2022-12-13T00:22:14;-1.10;99.90
5174;DHT22;2606;50.934;6.934;2022-12-13T00:24:41;-1.20;99.90
5174;DHT22;2606;50.934;6.934;2022-12-13T00:27:07;-1.20;99.90
5174;DHT22;2606;50.934;6.934;2022-12-13T00:29:33;-1.20;99.90
5174;DHT22;2606;50.934;6.934;2022-12-13T00:31:59;-1.10;99.90
5174;DHT22;2606;50.934;6.934;2022-12-13T00:34:25;-1.20;99.90
5174;DHT22;2606;50.934;6.934;2022-12-13T00:36:52;-1.20;99.90
5174;DHT22;2606;50.934;6.934;2022-12-13T00:39:18;-1.20;99.90
5174;DHT22;2606;50.934;6.934;2022-12-13T00:41:44;-1.20;99.90
5174;DHT22;2606;50.934;6.934;2022-12-13T00:44:12;-1.20;99.90
5174;DHT22;2606;50.934;6.934;2022-12-13T00:46:39;-1.20;99.90
5174;DHT22;2606;50.934;6.934;2022-12-13T00:49:04;-1.30;99.90
5174;DHT22;2606;50.934;6.934;2022-12-13T00:51:32;-1.30;99.90
5174;DHT22;2606;50.934;6.934;2022-12-13T00:53:59;-1.30;99.90
5174;DHT22;2606;50.934;6.934;2022-12-13T00:56:27;-1.30;99.90
5174;DHT22;2606;50.934;6.934;2022-12-13T00:58:53;-1.30;99.90
5174;DHT22;2606;50.934;6.934;2022-12-13T01:01:25;-1.30;99.90
5174;DHT22;2606;50.934;6.934;2022-12-13T01:03:53;-1.30;99.90
5174;DHT22;2606;50.934;6.934;2022-12-13T01:06:34;-1.30;99.90
5174;DHT22;2606;50.934;6.934;2022-12-13T01:09:01;-1.30;99.90
5174;DHT22;2606;50.934;6.934;2022-12-13T01:11:27;-1.40;99.90
5174;DHT22;2606;50.934;6.934;2022-12-13T01:13:52;-1.40;99.90
5174;DHT22;2606;50.934;6.934;2022-12-13T01:16:18;-1.40;99.90
5174;DHT22;2606;50.934;6.934;2022-12-13T01:18:44;-1.40;99.90
5174;DHT22;2606;50.934;6.934;2022-12-13T01:21:13;-1.40;99.90
5174;DHT22;2606;50.934;6.934;2022-12-13T01:23:39;-1.40;99.90
5174;DHT22;2606;50.934;6.934;2022-12-13T01:26:08;-1.40;99.90
5174;DHT22;2606;50.934;6.934;2022-12-13T01:28:34;-1.40;99.90
5174;DHT22;2606;50.934;6.934;2022-12-13T01:31:03;-1.40;99.90
5174;DHT22;2606;50.934;6.934;2022-12-13T01:33:30;-1.40;99.90
5174;DHT22;2606;50.934;6.934;2022-12-13T01:35:59;-1.40;99.90
5174;DHT22;2606;50.934;6.934;2022-12-13T01:38:26;-1.50;99.90
5174;DHT22;2606;50.934;6.934;2022-12-13T01:40:53;-1.40;99.90
5174;DHT22;2606;50.934;6.934;2022-12-13T01:43:24;-1.50;99.90
5174;DHT22;2606;50.934;6.934;2022-12-13T01:45:50;-1.50;99.90
5174;DHT22;2606;50.934;6.934;2022-12-13T01:48:20;-1.50;99.90
5174;DHT22;2606;50.934;6.934;2022-12-13T01:50:50;-1.50;99.90
5174;DHT22;2606;50.934;6.934;2022-12-13T01:53:22;-1.60;99.90
5174;DHT22;2606;50.934;6.934;2022-12-13T01:55:53;-1.60;99.90
5174;DHT22;2606;50.934;6.934;2022-12-13T01:58:20;-1.60;99.90
5174;DHT22;2606;50.934;6.934;2022-12-13T02:00:46;-1.60;99.90
5174;DHT22;2606;50.934;6.934;2022-12-13T02:03:13;-1.60;99.90
5174;DHT22;2606;50.934;6.934;2022-12-13T02:05:49;-1.70;99.90
5174;DHT22;2606;50.934;6.934;2022-12-13T02:08:17;-1.70;99.90
5174;DHT22;2606;50.934;6.934;2022-12-13T02:10:44;-1.70;99.90
5174;DHT22;2606;50.934;6.934;2022-12-13T02:13:10;-1.70;99.90
5174;DHT22;2606;50.934;6.934;2022-12-13T02:15:52;-1.80;99.90
5174;DHT22;2606;50.934;6.934;2022-12-13T02:21:13;-1.80;99.90
5174;DHT22;2606;50.934;6.934;2022-12-13T02:32:30;-1.90;99.90
5174;DHT22;2606;50.934;6.934;2022-12-13T02:35:04;-1.90;99.90
5174;DHT22;2606;50.934;6.934;2022-12-13T02:40:19;-2.00;99.90
5174;DHT22;2606;50.934;6.934;2022-12-13T02:43:06;-2.00;99.90
5174;DHT22;2606;50.934;6.934;2022-12-13T02:45:45;-2.00;99.90
5174;DHT22;2606;50.934;6.934;2022-12-13T02:48:15;-2.00;99.90
5174;DHT22;2606;50.934;6.934;2022-12-13T02:50:42;-2.00;99.90
5174;DHT22;2606;50.934;6.934;2022-12-13T02:53:09;-2.10;99.90
5174;DHT22;2606;50.934;6.934;2022-12-13T02:55:38;-2.10;99.90
5174;DHT22;2606;50.934;6.934;2022-12-13T02:58:04;-2.10;99.90
5174;DHT22;2606;50.934;6.934;2022-12-13T03:15:15;-2.20;99.90
5174;DHT22;2606;50.934;6.934;2022-12-13T03:18:06;-2.20;99.90
5174;DHT22;2606;50.934;6.934;2022-12-13T03:20:47;-2.30;99.90
5174;DHT22;2606;50.934;6.934;2022-12-13T03:23:14;-2.30;99.90
5174;DHT22;2606;50.934;6.934;2022-12-13T03:25:40;-2.30;99.90
5174;DHT22;2606;50.934;6.934;2022-12-13T03:28:06;-2.30;99.90
5174;DHT22;2606;50.934;6.934;2022-12-13T03:30:32;-2.30;99.90
5174;DHT22;2606;50.934;6.934;2022-12-13T03:32:59;-2.30;99.90
5174;DHT22;2606;50.934;6.934;2022-12-13T03:35:25;-2.20;99.90
5174;DHT22;2606;50.934;6.934;2022-12-13T03:37:51;-2.30;99.90
5174;DHT22;2606;50.934;6.934;2022-12-13T03:40:18;-2.40;99.90
5174;DHT22;2606;50.934;6.934;2022-12-13T03:42:44;-2.40;99.90
5174;DHT22;2606;50.934;6.934;2022-12-13T03:45:10;-2.40;99.90
5174;DHT22;2606;50.934;6.934;2022-12-13T03:47:35;-2.40;99.90
5174;DHT22;2606;50.934;6.934;2022-12-13T03:50:01;-2.40;99.90
5174;DHT22;2606;50.934;6.934;2022-12-13T03:52:27;-2.50;99.90
5174;DHT22;2606;50.934;6.934;2022-12-13T03:54:52;-2.40;99.90
5174;DHT22;2606;50.934;6.934;2022-12-13T03:57:18;-2.40;99.90
5174;DHT22;2606;50.934;6.934;2022-12-13T03:59:46;-2.40;99.90
5174;DHT22;2606;50.934;6.934;2022-12-13T04:02:12;-2.40;99.90
5174;DHT22;2606;50.934;6.934;2022-12-13T04:04:38;-2.50;99.90
5174;DHT22;2606;50.934;6.934;2022-12-13T04:07:03;-2.40;99.90
5174;DHT22;2606;50.934;6.934;2022-12-13T04:09:29;-2.50;99.90
5174;DHT22;2606;50.934;6.934;2022-12-13T04:11:55;-2.50;99.90
5174;DHT22;2606;50.934;6.934;2022-12-13T04:14:39;-2.60;99.90
5174;DHT22;2606;50.934;6.934;2022-12-13T04:17:04;-2.60;99.90
5174;DHT22;2606;50.934;6.934;2022-12-13T04:19:30;-2.60;99.90
5174;DHT22;2606;50.934;6.934;2022-12-13T04:21:56;-2.60;99.90
5174;DHT22;2606;50.934;6.934;2022-12-13T04:24:23;-2.60;99.90
5174;DHT22;2606;50.934;6.934;2022-12-13T04:26:48;-2.60;99.90
5174;DHT22;2606;50.934;6.934;2022-12-13T04:29:14;-2.60;99.90
5174;DHT22;2606;50.934;6.934;2022-12-13T04:31:40;-2.60;99.90
5174;DHT22;2606;50.934;6.934;2022-12-13T04:34:05;-2.60;99.90
5174;DHT22;2606;50.934;6.934;2022-12-13T04:36:31;-2.60;99.90
5174;DHT22;2606;50.934;6.934;2022-12-13T04:38:57;-2.70;99.90
5174;DHT22;2606;50.934;6.934;2022-12-13T04:41:23;-2.70;99.90
5174;DHT22;2606;50.934;6.934;2022-12-13T04:43:52;-2.70;99.90
5174;DHT22;2606;50.934;6.934;2022-12-13T04:46:21;-2.80;99.90
5174;DHT22;2606;50.934;6.934;2022-12-13T04:48:47;-2.80;99.90
5174;DHT22;2606;50.934;6.934;2022-12-13T04:51:13;-2.80;99.90
5174;DHT22;2606;50.934;6.934;2022-12-13T04:53:40;-2.90;99.90
5174;DHT22;2606;50.934;6.934;2022-12-13T04:56:05;-2.90;99.90
5174;DHT22;2606;50.934;6.934;2022-12-13T04:58:31;-2.90;99.90
5174;DHT22;2606;50.934;6.934;2022-12-13T05:00:57;-3.00;99.90
5174;DHT22;2606;50.934;6.934;2022-12-13T05:03:22;-3.00;99.90
5174;DHT22;2606;50.934;6.934;2022-12-13T05:05:48;-3.00;99.90
5174;DHT22;2606;50.934;6.934;2022-12-13T05:08:14;-3.10;99.90
5174;DHT22;2606;50.934;6.934;2022-12-13T05:10:40;-3.10;99.90
5174;DHT22;2606;50.934;6.934;2022-12-13T05:13:06;-3.10;99.90
5174;DHT22;2606;50.934;6.934;2022-12-13T05:15:32;-3.10;99.90
5174;DHT22;2606;50.934;6.934;2022-12-13T05:18:02;-3.10;99.90
5174;DHT22;2606;50.934;6.934;2022-12-13T05:20:28;-3.10;99.90
5174;DHT22;2606;50.934;6.934;2022-12-13T05:22:57;-3.10;99.90
5174;DHT22;2606;50.934;6.934;2022-12-13T05:25:26;-3.10;99.90
5174;DHT22;2606;50.934;6.934;2022-12-13T05:27:52;-3.10;99.90
5174;DHT22;2606;50.934;6.934;2022-12-13T05:30:18;-3.10;99.90
5174;DHT22;2606;50.934;6.934;2022-12-13T05:32:44;-3.10;99.90
5174;DHT22;2606;50.934;6.934;2022-12-13T05:35:12;-3.10;99.90
5174;DHT22;2606;50.934;6.934;2022-12-13T05:37:38;-3.00;99.90
5174;DHT22;2606;50.934;6.934;2022-12-13T05:40:04;-3.00;99.90
5174;DHT22;2606;50.934;6.934;2022-12-13T05:42:29;-3.00;99.90
5174;DHT22;2606;50.934;6.934;2022-12-13T05:44:56;-3.00;99.90
5174;DHT22;2606;50.934;6.934;2022-12-13T05:47:21;-2.90;99.90
5174;DHT22;2606;50.934;6.934;2022-12-13T05:49:47;-3.00;99.90
5174;DHT22;2606;50.934;6.934;2022-12-13T05:52:17;-2.90;99.90
5174;DHT22;2606;50.934;6.934;2022-12-13T05:54:45;-3.00;99.90
5174;DHT22;2606;50.934;6.934;2022-12-13T05:57:11;-2.80;99.90
5174;DHT22;2606;50.934;6.934;2022-12-13T05:59:37;-3.00;99.90
5174;DHT22;2606;50.934;6.934;2022-12-13T06:02:03;-3.00;99.90
5174;DHT22;2606;50.934;6.934;2022-12-13T06:04:28;-3.00;99.90
5174;DHT22;2606;50.934;6.934;2022-12-13T06:06:54;-3.00;99.90
5174;DHT22;2606;50.934;6.934;2022-12-13T06:09:20;-3.10;99.90
5174;DHT22;2606;50.934;6.934;2022-12-13T06:11:46;-3.10;99.90
5174;DHT22;2606;50.934;6.934;2022-12-13T06:14:12;-3.10;99.90
5174;DHT22;2606;50.934;6.934;2022-12-13T06:16:37;-3.10;99.90
5174;DHT22;2606;50.934;6.934;2022-12-13T06:19:03;-3.10;99.90
5174;DHT22;2606;50.934;6.934;2022-12-13T06:21:30;-3.10;99.90
5174;DHT22;2606;50.934;6.934;2022-12-13T06:23:56;-3.10;99.90
5174;DHT22;2606;50.934;6.934;2022-12-13T06:26:21;-3.10;99.90
5174;DHT22;2606;50.934;6.934;2022-12-13T06:28:47;-3.10;99.90
5174;DHT22;2606;50.934;6.934;2022-12-13T06:31:13;-3.10;99.90
5174;DHT22;2606;50.934;6.934;2022-12-13T06:33:38;-3.10;99.90
5174;DHT22;2606;50.934;6.934;2022-12-13T06:36:04;-3.10;99.90
5174;DHT22;2606;50.934;6.934;2022-12-13T06:38:30;-3.10;99.90
5174;DHT22;2606;50.934;6.934;2022-12-13T06:41:06;-3.10;99.90
5174;DHT22;2606;50.934;6.934;2022-12-13T06:43:32;-3.10;99.90
5174;DHT22;2606;50.934;6.934;2022-12-13T06:45:57;-3.10;99.90
5174;DHT22;2606;50.934;6.934;2022-12-13T06:48:23;-3.10;99.90
5174;DHT22;2606;50.934;6.934;2022-12-13T06:50:48;-3.10;99.90
5174;DHT22;2606;50.934;6.934;2022-12-13T06:53:14;-3.10;99.90
5174;DHT22;2606;50.934;6.934;2022-12-13T06:55:40;-3.10;99.90
5174;DHT22;2606;50.934;6.934;2022-12-13T06:58:05;-3.00;99.90
5174;DHT22;2606;50.934;6.934;2022-12-13T07:00:31;-3.00;99.90
5174;DHT22;2606;50.934;6.934;2022-12-13T07:02:57;-3.00;99.90
5174;DHT22;2606;50.934;6.934;2022-12-13T07:05:22;-3.00;99.90
5174;DHT22;2606;50.934;6.934;2022-12-13T07:07:49;-3.00;99.90
5174;DHT22;2606;50.934;6.934;2022-12-13T07:10:14;-3.00;99.90
5174;DHT22;2606;50.934;6.934;2022-12-13T07:12:42;-3.00;99.90
5174;DHT22;2606;50.934;6.934;2022-12-13T07:15:08;-3.00;99.90
5174;DHT22;2606;50.934;6.934;2022-12-13T07:17:34;-3.00;99.90
5174;DHT22;2606;50.934;6.934;2022-12-13T07:20:02;-3.00;99.90
5174;DHT22;2606;50.934;6.934;2022-12-13T07:22:28;-3.00;99.90
5174;DHT22;2606;50.934;6.934;2022-12-13T07:24:54;-3.00;99.90
5174;DHT22;2606;50.934;6.934;2022-12-13T07:27:20;-2.90;99.90
5174;DHT22;2606;50.934;6.934;2022-12-13T07:29:49;-3.00;99.90
5174;DHT22;2606;50.934;6.934;2022-12-13T07:32:14;-3.10;99.90
5174;DHT22;2606;50.934;6.934;2022-12-13T07:34:48;-3.10;99.90
5174;DHT22;2606;50.934;6.934;2022-12-13T07:37:14;-3.10;99.90
5174;DHT22;2606;50.934;6.934;2022-12-13T07:43:08;-3.10;99.90
5174;DHT22;2606;50.934;6.934;2022-12-13T07:45:35;-3.10;99.90
5174;DHT22;2606;50.934;6.934;2022-12-13T07:48:05;-3.10;99.90
5174;DHT22;2606;50.934;6.934;2022-12-13T07:50:31;-3.10;99.90
5174;DHT22;2606;50.934;6.934;2022-12-13T07:52:56;-3.10;99.90
5174;DHT22;2606;50.934;6.934;2022-12-13T07:55:22;-3.10;99.90
5174;DHT22;2606;50.934;6.934;2022-12-13T07:57:47;-3.10;99.90
5174;DHT22;2606;50.934;6.934;2022-12-13T08:00:13;-3.10;99.90
5174;DHT22;2606;50.934;6.934;2022-12-13T08:02:40;-3.10;99.90
5174;DHT22;2606;50.934;6.934;2022-12-13T08:05:06;-3.10;99.90
5174;DHT22;2606;50.934;6.934;2022-12-13T08:07:32;-3.10;99.90
5174;DHT22;2606;50.934;6.934;2022-12-13T08:09:57;-3.10;99.90
5174;DHT22;2606;50.934;6.934;2022-12-13T08:12:23;-3.10;99.90
5174;DHT22;2606;50.934;6.934;2022-12-13T08:14:49;-3.10;99.90
5174;DHT22;2606;50.934;6.934;2022-12-13T08:17:15;-3.00;99.90
5174;DHT22;2606;50.934;6.934;2022-12-13T08:19:46;-2.90;99.90
5174;DHT22;2606;50.934;6.934;2022-12-13T08:22:12;-2.70;99.90
5174;DHT22;2606;50.934;6.934;2022-12-13T08:24:39;-2.50;99.90
5174;DHT22;2606;50.934;6.934;2022-12-13T08:27:04;-2.20;99.90
5174;DHT22;2606;50.934;6.934;2022-12-13T08:29:31;-1.90;99.90
5174;DHT22;2606;50.934;6.934;2022-12-13T08:31:58;-1.80;99.90
5174;DHT22;2606;50.934;6.934;2022-12-13T08:34:24;-1.60;99.90
5174;DHT22;2606;50.934;6.934;2022-12-13T08:36:50;-1.50;99.90
5174;DHT22;2606;50.934;6.934;2022-12-13T08:39:16;-1.40;99.90
5174;DHT22;2606;50.934;6.934;2022-12-13T08:41:42;-1.40;99.90
5174;DHT22;2606;50.934;6.934;2022-12-13T08:44:08;-1.40;99.90
5174;DHT22;2606;50.934;6.934;2022-12-13T08:46:33;-1.60;99.90
5174;DHT22;2606;50.934;6.934;2022-12-13T08:48:59;-1.70;99.90
5174;DHT22;2606;50.934;6.934;2022-12-13T08:51:24;-1.80;99.90
5174;DHT22;2606;50.934;6.934;2022-12-13T08:53:50;-1.80;99.90
5174;DHT22;2606;50.934;6.934;2022-12-13T08:56:16;-1.90;99.90
5174;DHT22;2606;50.934;6.934;2022-12-13T08:58:48;-2.00;99.90
5174;DHT22;2606;50.934;6.934;2022-12-13T09:01:15;-2.00;99.90
5174;DHT22;2606;50.934;6.934;2022-12-13T09:03:40;-2.00;99.90
5174;DHT22;2606;50.934;6.934;2022-12-13T09:06:07;-2.00;99.90
5174;DHT22;2606;50.934;6.934;2022-12-13T09:08:35;-2.10;99.90
5174;DHT22;2606;50.934;6.934;2022-12-13T09:11:01;-2.10;99.90
5174;DHT22;2606;50.934;6.934;2022-12-13T09:13:28;-2.10;99.90
5174;DHT22;2606;50.934;6.934;2022-12-13T09:15:54;-2.10;99.90
5174;DHT22;2606;50.934;6.934;2022-12-13T09:18:19;-2.10;99.90
5174;DHT22;2606;50.934;6.934;2022-12-13T09:20:45;-2.00;99.90
5174;DHT22;2606;50.934;6.934;2022-12-13T09:23:11;-2.00;99.90
5174;DHT22;2606;50.934;6.934;2022-12-13T09:25:36;-1.90;99.90
5174;DHT22;2606;50.934;6.934;2022-12-13T09:28:06;-1.90;99.90
5174;DHT22;2606;50.934;6.934;2022-12-13T09:30:33;-1.90;99.90
5174;DHT22;2606;50.934;6.934;2022-12-13T09:32:58;-1.90;99.90
5174;DHT22;2606;50.934;6.934;2022-12-13T09:35:24;-1.80;99.90
5174;DHT22;2606;50.934;6.934;2022-12-13T09:37:49;-1.80;99.90
5174;DHT22;2606;50.934;6.934;2022-12-13T09:40:21;-1.70;99.90
5174;DHT22;2606;50.934;6.934;2022-12-13T09:42:50;-1.60;99.90
5174;DHT22;2606;50.934;6.934;2022-12-13T09:45:17;-1.60;99.90
5174;DHT22;2606;50.934;6.934;2022-12-13T09:47:44;-1.60;99.90
5174;DHT22;2606;50.934;6.934;2022-12-13T09:50:26;-1.60;99.90
5174;DHT22;2606;50.934;6.934;2022-12-13T09:52:53;-1.50;99.90
5174;DHT22;2606;50.934;6.934;2022-12-13T09:55:22;-1.50;99.90
5174;DHT22;2606;50.934;6.934;2022-12-13T09:57:49;-1.50;99.90
5174;DHT22;2606;50.934;6.934;2022-12-13T10:00:20;-1.50;99.90
5174;DHT22;2606;50.934;6.934;2022-12-13T10:07:44;-1.40;99.90
5174;DHT22;2606;50.934;6.934;2022-12-13T10:10:12;-1.30;99.90
5174;DHT22;2606;50.934;6.934;2022-12-13T10:12:41;-1.30;99.90
5174;DHT22;2606;50.934;6.934;2022-12-13T10:15:10;-1.30;99.90
5174;DHT22;2606;50.934;6.934;2022-12-13T10:17:39;-1.20;99.90
5174;DHT22;2606;50.934;6.934;2022-12-13T10:20:06;-1.20;99.90
5174;DHT22;2606;50.934;6.934;2022-12-13T10:22:32;-1.20;99.90
5174;DHT22;2606;50.934;6.934;2022-12-13T10:25:03;-1.10;99.90
5174;DHT22;2606;50.934;6.934;2022-12-13T10:30:05;-1.10;99.90
5174;DHT22;2606;50.934;6.934;2022-12-13T10:32:41;-1.00;99.90
5174;DHT22;2606;50.934;6.934;2022-12-13T10:35:21;-1.00;99.90
5174;DHT22;2606;50.934;6.934;2022-12-13T10:37:47;-0.90;99.90
5174;DHT22;2606;50.934;6.934;2022-12-13T10:45:33;-0.80;99.90
5174;DHT22;2606;50.934;6.934;2022-12-13T10:47:59;-0.80;99.90
5174;DHT22;2606;50.934;6.934;2022-12-13T10:50:26;-0.80;99.90
5174;DHT22;2606;50.934;6.934;2022-12-13T10:52:54;-0.80;99.90
5174;DHT22;2606;50.934;6.934;2022-12-13T10:55:32;-0.80;99.90
5174;DHT22;2606;50.934;6.934;2022-12-13T10:58:06;-0.70;99.90
5174;DHT22;2606;50.934;6.934;2022-12-13T11:00:41;-0.70;99.90
5174;DHT22;2606;50.934;6.934;2022-12-13T11:06:13;-0.60;99.90
5174;DHT22;2606;50.934;6.934;2022-12-13T11:08:39;-0.60;99.90
5174;DHT22;2606;50.934;6.934;2022-12-13T11:11:07;-0.50;99.90
5174;DHT22;2606;50.934;6.934;2022-12-13T11:13:41;-0.50;99.90
5174;DHT22;2606;50.934;6.934;2022-12-13T11:16:57;-0.50;99.90
5174;DHT22;2606;50.934;6.934;2022-12-13T11:19:39;-0.40;99.90
5174;DHT22;2606;50.934;6.934;2022-12-13T11:22:09;-0.40;99.90
5174;DHT22;2606;50.934;6.934;2022-12-13T11:24:50;-0.40;99.90
5174;DHT22;2606;50.934;6.934;2022-12-13T11:30:41;-0.30;99.90
5174;DHT22;2606;50.934;6.934;2022-12-13T11:35:56;-0.30;99.90
5174;DHT22;2606;50.934;6.934;2022-12-13T11:41:28;-0.30;99.90
5174;DHT22;2606;50.934;6.934;2022-12-13T11:44:21;-0.30;99.90
5174;DHT22;2606;50.934;6.934;2022-12-13T11:46:54;-0.20;99.90
5174;DHT22;2606;50.934;6.934;2022-12-13T11:55:00;-0.20;99.90
5174;DHT22;2606;50.934;6.934;2022-12-13T12:00:27;-0.20;99.90
5174;DHT22;2606;50.934;6.934;2022-12-13T12:02:59;-0.10;99.90
5174;DHT22;2606;50.934;6.934;2022-12-13T12:05:36;-0.10;99.90
5174;DHT22;2606;50.934;6.934;2022-12-13T12:08:19;-0.10;99.90
5174;DHT22;2606;50.934;6.934;2022-12-13T12:10:48;-0.10;99.90
5174;DHT22;2606;50.934;6.934;2022-12-13T12:18:20;0.00;99.90
5174;DHT22;2606;50.934;6.934;2022-12-13T12:23:59;0.00;99.90
5174;DHT22;2606;50.934;6.934;2022-12-13T12:37:52;0.10;99.90
5174;DHT22;2606;50.934;6.934;2022-12-13T12:46:25;0.10;99.90
5174;DHT22;2606;50.934;6.934;2022-12-13T12:52:04;0.10;99.90
5174;DHT22;2606;50.934;6.934;2022-12-13T12:54:47;0.10;99.90
5174;DHT22;2606;50.934;6.934;2022-12-13T12:57:29;0.00;99.90
5174;DHT22;2606;50.934;6.934;2022-12-13T13:00:09;0.10;99.90
5174;DHT22;2606;50.934;6.934;2022-12-13T13:02:56;0.10;99.90
5174;DHT22;2606;50.934;6.934;2022-12-13T13:08:03;0.10;99.90
5174;DHT22;2606;50.934;6.934;2022-12-13T13:10:31;0.20;99.90
5174;DHT22;2606;50.934;6.934;2022-12-13T13:12:56;0.20;99.90
5174;DHT22;2606;50.934;6.934;2022-12-13T13:18:00;0.30;99.90
5174;DHT22;2606;50.934;6.934;2022-12-13T13:20:27;0.40;99.90
5174;DHT22;2606;50.934;6.934;2022-12-13T13:22:56;0.40;99.90
5174;DHT22;2606;50.934;6.934;2022-12-13T13:27:50;0.40;99.90
5174;DHT22;2606;50.934;6.934;2022-12-13T13:30:24;0.40;99.90
5174;DHT22;2606;50.934;6.934;2022-12-13T13:32:51;0.50;99.90
5174;DHT22;2606;50.934;6.934;2022-12-13T13:40:32;0.50;99.90
5174;DHT22;2606;50.934;6.934;2022-12-13T13:57:13;0.60;99.90
5174;DHT22;2606;50.934;6.934;2022-12-13T14:22:03;0.80;99.90
5174;DHT22;2606;50.934;6.934;2022-12-13T14:28:00;0.80;99.90
5174;DHT22;2606;50.934;6.934;2022-12-13T14:30:28;0.70;99.90
5174;DHT22;2606;50.934;6.934;2022-12-13T14:32:53;0.80;99.90
5174;DHT22;2606;50.934;6.934;2022-12-13T14:35:23;0.70;99.90
5174;DHT22;2606;50.934;6.934;2022-12-13T14:38:20;0.80;99.90
5174;DHT22;2606;50.934;6.934;2022-12-13T14:41:04;0.70;99.90
5174;DHT22;2606;50.934;6.934;2022-12-13T14:43:34;0.60;99.90
5174;DHT22;2606;50.934;6.934;2022-12-13T14:46:02;0.70;99.90
5174;DHT22;2606;50.934;6.934;2022-12-13T14:48:32;0.70;99.90
5174;DHT22;2606;50.934;6.934;2022-12-13T14:50:59;0.70;99.90
5174;DHT22;2606;50.934;6.934;2022-12-13T14:53:34;0.70;99.90
5174;DHT22;2606;50.934;6.934;2022-12-13T14:56:09;0.70;99.90
5174;DHT22;2606;50.934;6.934;2022-12-13T14:58:36;0.70;99.90
5174;DHT22;2606;50.934;6.934;2022-12-13T15:01:21;0.70;99.90
5174;DHT22;2606;50.934;6.934;2022-12-13T15:03:48;0.70;99.90
5174;DHT22;2606;50.934;6.934;2022-12-13T15:06:13;0.70;99.90
5174;DHT22;2606;50.934;6.934;2022-12-13T15:08:39;0.70;99.90
5174;DHT22;2606;50.934;6.934;2022-12-13T15:11:09;0.60;99.90
5174;DHT22;2606;50.934;6.934;2022-12-13T15:13:38;0.60;99.90
5174;DHT22;2606;50.934;6.934;2022-12-13T15:16:28;0.60;99.90
5174;DHT22;2606;50.934;6.934;2022-12-13T15:19:23;0.60;99.90
5174;DHT22;2606;50.934;6.934;2022-12-13T15:24:29;0.50;99.90
5174;DHT22;2606;50.934;6.934;2022-12-13T15:26:57;0.50;99.90
5174;DHT22;2606;50.934;6.934;2022-12-13T15:29:25;0.50;99.90
5174;DHT22;2606;50.934;6.934;2022-12-13T15:31:51;0.50;99.90
5174;DHT22;2606;50.934;6.934;2022-12-13T15:34:22;0.40;99.90
5174;DHT22;2606;50.934;6.934;2022-12-13T15:36:48;0.40;99.90
5174;DHT22;2606;50.934;6.934;2022-12-13T15:39:14;0.40;99.90
5174;DHT22;2606;50.934;6.934;2022-12-13T15:41:48;0.40;99.90
5174;DHT22;2606;50.934;6.934;2022-12-13T15:44:28;0.40;99.90
5174;DHT22;2606;50.934;6.934;2022-12-13T15:47:02;0.30;99.90
5174;DHT22;2606;50.934;6.934;2022-12-13T15:49:37;0.30;99.90
5174;DHT22;2606;50.934;6.934;2022-12-13T15:54:38;0.30;99.90
5174;DHT22;2606;50.934;6.934;2022-12-13T15:57:23;0.20;99.90
5174;DHT22;2606;50.934;6.934;2022-12-13T16:02:29;0.20;99.90
5174;DHT22;2606;50.934;6.934;2022-12-13T16:05:08;0.20;99.90
5174;DHT22;2606;50.934;6.934;2022-12-13T16:07:35;0.20;99.90
5174;DHT22;2606;50.934;6.934;2022-12-13T16:10:05;0.20;99.90
5174;DHT22;2606;50.934;6.934;2022-12-13T16:12:43;0.20;99.90
5174;DHT22;2606;50.934;6.934;2022-12-13T16:17:42;0.10;99.90
5174;DHT22;2606;50.934;6.934;2022-12-13T16:20:15;0.10;99.90
5174;DHT22;2606;50.934;6.934;2022-12-13T16:22:42;0.10;99.90
5174;DHT22;2606;50.934;6.934;2022-12-13T16:25:12;0.10;99.90
5174;DHT22;2606;50.934;6.934;2022-12-13T16:27:38;0.10;99.90
5174;DHT22;2606;50.934;6.934;2022-12-13T16:30:20;0.10;99.90
5174;DHT22;2606;50.934;6.934;2022-12-13T16:32:47;0.10;99.90
5174;DHT22;2606;50.934;6.934;2022-12-13T16:35:13;0.00;99.90
5174;DHT22;2606;50.934;6.934;2022-12-13T16:37:39;0.10;99.90
5174;DHT22;2606;50.934;6.934;2022-12-13T16:40:27;0.00;99.90
5174;DHT22;2606;50.934;6.934;2022-12-13T16:42:59;0.10;99.90
5174;DHT22;2606;50.934;6.934;2022-12-13T16:45:37;0.00;99.90
5174;DHT22;2606;50.934;6.934;2022-12-13T16:48:04;0.10;99.90
5174;DHT22;2606;50.934;6.934;2022-12-13T16:50:31;0.00;99.90
5174;DHT22;2606;50.934;6.934;2022-12-13T16:52:57;0.00;99.90
5174;DHT22;2606;50.934;6.934;2022-12-13T16:55:23;0.00;99.90
5174;DHT22;2606;50.934;6.934;2022-12-13T16:57:56;0.00;99.90
5174;DHT22;2606;50.934;6.934;2022-12-13T17:00:22;0.00;99.90
5174;DHT22;2606;50.934;6.934;2022-12-13T17:02:48;-0.10;99.90
5174;DHT22;2606;50.934;6.934;2022-12-13T17:05:13;0.00;99.90
5174;DHT22;2606;50.934;6.934;2022-12-13T17:07:39;0.00;99.90
5174;DHT22;2606;50.934;6.934;2022-12-13T17:10:06;-0.10;99.90
5174;DHT22;2606;50.934;6.934;2022-12-13T17:12:32;-0.10;99.90
5174;DHT22;2606;50.934;6.934;2022-12-13T17:14:57;-0.10;99.90
5174;DHT22;2606;50.934;6.934;2022-12-13T17:17:23;-0.10;99.90
5174;DHT22;2606;50.934;6.934;2022-12-13T17:19:48;-0.10;99.90
5174;DHT22;2606;50.934;6.934;2022-12-13T17:22:14;-0.10;99.90
5174;DHT22;2606;50.934;6.934;2022-12-13T17:24:40;0.00;99.90
5174;DHT22;2606;50.934;6.934;2022-12-13T17:27:05;-0.10;99.90
5174;DHT22;2606;50.934;6.934;2022-12-13T17:29:59;0.00;99.90
5174;DHT22;2606;50.934;6.934;2022-12-13T17:32:26;0.00;99.90
5174;DHT22;2606;50.934;6.934;2022-12-13T17:34:52;-0.10;99.90
5174;DHT22;2606;50.934;6.934;2022-12-13T17:37:18;-0.10;99.90
5174;DHT22;2606;50.934;6.934;2022-12-13T17:39:43;-0.10;99.90
5174;DHT22;2606;50.934;6.934;2022-12-13T17:42:09;-0.10;99.90
5174;DHT22;2606;50.934;6.934;2022-12-13T17:44:42;-0.10;99.90
5174;DHT22;2606;50.934;6.934;2022-12-13T17:47:07;-0.10;99.90
5174;DHT22;2606;50.934;6.934;2022-12-13T17:52:57;-0.10;99.90
5174;DHT22;2606;50.934;6.934;2022-12-13T17:55:22;-0.10;99.90
5174;DHT22;2606;50.934;6.934;2022-12-13T17:57:54;-0.10;99.90
5174;DHT22;2606;50.934;6.934;2022-12-13T18:00:24;-0.10;99.90
5174;DHT22;2606;50.934;6.934;2022-12-13T18:02:53;-0.20;99.90
5174;DHT22;2606;50.934;6.934;2022-12-13T18:05:18;-0.20;99.90
5174;DHT22;2606;50.934;6.934;2022-12-13T18:07:44;0.00;99.90
5174;DHT22;2606;50.934;6.934;2022-12-13T18:10:14;-0.20;99.90
5174;DHT22;2606;50.934;6.934;2022-12-13T18:12:39;-0.20;99.90
5174;DHT22;2606;50.934;6.934;2022-12-13T18:15:05;-0.20;99.90
5174;DHT22;2606;50.934;6.934;2022-12-13T18:17:31;-0.20;99.90
5174;DHT22;2606;50.934;6.934;2022-12-13T18:19:57;-0.30;99.90
5174;DHT22;2606;50.934;6.934;2022-12-13T18:22:22;-0.30;99.90
5174;DHT22;2606;50.934;6.934;2022-12-13T18:24:48;-0.30;99.90
5174;DHT22;2606;50.934;6.934;2022-12-13T18:27:13;-0.30;99.90
5174;DHT22;2606;50.934;6.934;2022-12-13T18:29:39;-0.30;99.90
5174;DHT22;2606;50.934;6.934;2022-12-13T18:32:07;-0.40;99.90
5174;DHT22;2606;50.934;6.934;2022-12-13T18:34:33;-0.40;99.90
5174;DHT22;2606;50.934;6.934;2022-12-13T18:37:02;-0.40;99.90
5174;DHT22;2606;50.934;6.934;2022-12-13T18:39:30;-0.40;99.90
5174;DHT22;2606;50.934;6.934;2022-12-13T18:41:58;-0.40;99.90
5174;DHT22;2606;50.934;6.934;2022-12-13T18:44:27;-0.40;99.90
5174;DHT22;2606;50.934;6.934;2022-12-13T18:46:52;-0.40;99.90
5174;DHT22;2606;50.934;6.934;2022-12-13T18:49:25;-0.40;99.90
5174;DHT22;2606;50.934;6.934;2022-12-13T18:51:56;-0.50;99.90
5174;DHT22;2606;50.934;6.934;2022-12-13T18:54:22;-0.50;99.90